AirNav   TITAN Aviation Fuels
 
 1232 users online  

MN27 Fairview Southdale Hospital Heliport
Edina, Minnesota, USA

GOING TO EDINA?


FAA INFORMATION EFFECTIVE 22 APRIL 2021

Location

FAA Identifier: MN27
Lat/Long: 44-53-10.2600N 093-19-34.6400W
44-53.171000N 093-19.577333W
44.8861833,-93.3262889
(estimated)
Elevation: 867 ft. / 264 m (estimated)
Variation: 03E (1995)
From city: 2 miles E of EDINA, MN
Time zone: UTC -5 (UTC -6 during Standard Time)
Zip code: 55435

Heliport Operations

Heliport use: Private use, MEDICAL USE.
Activation date: 02/1998
Control tower: no
ARTCC: MINNEAPOLIS CENTER
FSS: PRINCETON FLIGHT SERVICE STATION
Attendance: CONTINUOUS
Wind indicator: lighted
Segmented circle: no
Lights: FOR PERIMETER LGTS CALL 612-924-5018.

Heliport Communications

WX ASOS at MSP (4 nm E): 135.35 (612-713-4174)
WX ASOS at FCM (7 nm SW): 124.9 (952-941-4156)
WX ASOS at MIC (11 nm N): 125.7 (763-531-2343)
WX ASOS at STP (12 nm E): 118.35 (651-312-8888)
WX AWOS-3 at SGS (13 nm E): 119.425 (651-457-8120)
WX AWOS-3 at LVN (16 nm S): 118.0 (952-469-5850)
WX AWOS-3 at ANE (16 nm N): 120.625 (763-780-9025)

Nearby radio navigation aids

VOR radial/distance  VOR name  Freq  Var
MSPr259/3.9MINNEAPOLIS VOR/DME115.3002E
FCMr053/6.2FLYING CLOUD VOR/DME117.7001E
GEPr167/15.7GOPHER VORTAC117.3006E
FGTr332/16.5FARMINGTON VORTAC115.7006E

Heliport Services

Runway Information

Helipad H1

Dimensions: 50 x 50 ft. / 15 x 15 m
Surface: ROOF/TOP, in good condition
Runway edge lights: PERI
Latitude: 44-53.171000N
Longitude: 093-19.577333W
Elevation: 867.0 ft.
Traffic pattern: leftleft

Heliport Ownership and Management from official FAA records

Ownership: Privately-owned
Owner: FAIRVIEW SOUTHDALE HOSPITAL
6401 FRANCE AVE S
MINNEAPOLIS, MN 55435
Phone 612-924-5018
Manager: KEVIN JOHNSON
6401 FRANCE AVE S
EDINA, MN 55435
Phone 952-924-1394
CELL 952-239-6264

Additional Remarks

FOR CD CTC MINNEAPOLIS ARTCC AT 651-463-5588.

Instrument Procedures

There are no published instrument procedures at MN27.

Some nearby airports with instrument procedures:

KMSP - Minneapolis-St Paul International/Wold-Chamberlain Airport (4 nm E)
KFCM - Flying Cloud Airport (7 nm SW)
KMIC - Crystal Airport (11 nm N)
KSTP - St Paul Downtown Airport Holman Field (12 nm E)
KSGS - South St Paul Municipal Airport-Richard E Fleming Field (13 nm E)
KLVN - Airlake Airport (16 nm S)
KANE - Anoka County-Blaine Airport (Janes Field) (16 nm N)
 
Loc | Ops | Rwys | IFR | FBO | Links
Com | Nav | Svcs | Stats | Notes
Area around MN27 (Fairview Southdale Hospital Heliport)
 
Road maps at: MapQuest Bing Google
 
Aerial photo
No photo
 
Sectional chart

 
Airport distance calculator
Flying to Fairview Southdale Hospital Heliport? Find the distance to fly.

From to MN27

Sunrise and sunset
Times for 05-May-2021
 Local
(UTC-5)
 Zulu
(UTC)
Morning civil twilight05:2510:25
Sunrise05:5810:58
Sunset20:2201:22
Evening civil twilight20:5501:55

Current date and time
Zulu (UTC)  05-May-2021 22:26:13
Local (UTC-5)  05-May-2021 17:26:13
 
METAR
KMSP 
4nm E 
052153Z 02005KT 8SM -RA BKN039 OVC048 08/04 A3019 RMK AO2 SLP227 P0001 T00830039
KFCM 
7nm SW 
052153Z 03004KT 7SM -RA OVC043 08/04 A3017 RMK AO2 SLP223 P0002 T00830044
KSGS 
8nm E 
052215Z AUTO 32004KT 7SM -RA SCT032 SCT038 08/04 A3018 RMK AO2 T00810043
KMIC 
11nm N 
052153Z 29004KT 10SM -RA OVC046 09/03 A3018 RMK AO2 RAB2058 SLP225 P0000 T00890028
KSTP 
12nm E 
052153Z 35004KT 10SM -RA OVC041 09/03 A3019 RMK AO2 SLP227 P0001 T00890033
KANE 
16nm N 
052145Z 25007KT 10SM SCT045 OVC080 09/02 A3018
KLVN 
17nm S 
052215Z AUTO 36006KT 10SM -RA BKN033 BKN040 07/03 A3018 RMK AO2
TAF
KMSP 
4nm E 
051733Z 0518/0624 35005KT P6SM OVC070 FM052100 34006KT 6SM -SHRA OVC035 FM060300 33004KT P6SM BKN050 FM060900 31005KT P6SM FEW080 FM061700 31013G22KT P6SM BKN080
NOTAMs
Click for the latest NOTAMs
NOTAMs are issued by the DoD/FAA and will open in a separate window not controlled by AirNav.

 

 
 

Would you like to see your business listed on this page?

 If your business provides an interesting product or service to pilots, flight crews, aircraft, or users of the Fairview Southdale Hospital Heliport, you should consider listing it here.  To start the listing process, click on the button below
 
Add a business
 

Other Pages about Fairview Southdale Hospital Heliport

Update a link
 
Copyright © AirNav, LLC. All rights reserved. Privacy Policy  Contact